South Montrose, PA

3:32 PM EST on November 22, 2019 (GMT -0500)
Dimock Township SR 29 | | Change Station

Elev 1529 ft 41.76 °N, 75.90 °W | Updated 1 minute ago

Overcast
Overcast
36.2 °F
Feels Like 36 °F
N
3
Wind Variable Wind from NNE
Gusts 22.0 mph

Today
High -- | Low -- °F
--% Chance of Precip.
Yesterday
High -- | Low -- °F
Precip. -- in
Pressure 29.81 in
Visibility 9.0 miles
Clouds Mostly Cloudy 2600 ft
Overcast 3400 ft
Windchill 36 °F
Dew Point 27 °F
Humidity 68%
Rainfall 0.15 in
Snow Depth Not available.
7:01 AM 4:37 PM
Waning Crescent, 18% visible
METAR KBGM 221953Z 32010G19KT 9SM -SN BKN026 OVC034 01/M03 A2978 RMK AO2 UPE1858RAB1858E24SNB24 SLP093 P0000 T00111028
Pressure 29.81 in
Visibility 9.0 miles
Clouds Mostly Cloudy 2600 ft
Overcast 3400 ft
Windchill 36 °F
Dew Point 27 °F
Humidity 68%
Rainfall 0.15 in
Snow Depth Not available.
7:01 AM 4:37 PM
Waning Crescent, 18% visible
METAR KBGM 221953Z 32010G19KT 9SM -SN BKN026 OVC034 01/M03 A2978 RMK AO2 UPE1858RAB1858E24SNB24 SLP093 P0000 T00111028

Get Severe Weather Alerts

Thanks for signing up!

Be on the lookout for a verification email in your inbox.

You'll start receiving the daily forecast at 6 AM.

×

10-Day Weather Forecast

Almanac

Astronomy

Nov. 22, 2019 Rise Set
Actual Time
Civil Twilight
Nautical Twilight
Astronomical Twilight
Moon
Length of Visible Light
Length of Day
Tomorrow will be .
, % of the Moon is Illuminated

Today's Extremes

State Highs State Lows

Community

WunderPhotos

Category 6

Welcome to Category 6. This is the collective home for Weather Underground's featured writeups by Dr. Jeff Masters (right), Bob Henson (left), Chris Burt, and other regular contributors.

Nearby

Air Quality

  Air Quality AQ Index Pollutant
Not available.

Snow Depth

Station Depth Elevation

Earthquake Activity

City Distance Mag. Time & Date
Minimum magnitude displayed is 2.5.

Coastal Water Temperatures

Place Temperature

Stations

Nearby Weather Stations

Station Location Temp. Windchill Dew Point Humidity Wind Precip. Elev Updated Type
                   

Watches & Warnings

There are currently no watches in effect.